createdAt,value
2022-09-15T00:00:51.263Z,13.11
2022-09-15T00:03:20.365Z,13.04
2022-09-15T00:05:48.635Z,12.97
2022-09-15T00:08:17.591Z,12.86
2022-09-15T00:10:49.171Z,12.78
2022-09-15T00:13:17.368Z,12.71
2022-09-15T00:15:45.125Z,12.63
2022-09-15T00:18:13.013Z,12.58
2022-09-15T00:20:42.694Z,12.56
2022-09-15T00:23:11.049Z,12.49
2022-09-15T00:25:45.594Z,12.43
2022-09-15T00:28:13.913Z,12.39
2022-09-15T00:30:43.159Z,12.31
2022-09-15T00:33:11.005Z,12.28
2022-09-15T00:35:39.884Z,12.26
2022-09-15T00:38:08.719Z,12.24
2022-09-15T00:40:46.427Z,12.20
2022-09-15T00:43:15.543Z,12.14
2022-09-15T00:45:43.278Z,12.14
2022-09-15T00:48:14.519Z,12.09
2022-09-15T00:50:45.870Z,12.08
2022-09-15T00:53:15.164Z,12.06
2022-09-15T00:55:47.442Z,12.02
2022-09-15T00:58:31.123Z,12.02
2022-09-15T01:01:01.387Z,11.99
2022-09-15T01:03:31.483Z,11.97
2022-09-15T01:06:03.105Z,11.95
2022-09-15T01:08:35.214Z,11.90
2022-09-15T01:11:03.022Z,11.89
2022-09-15T01:13:31.990Z,11.85
2022-09-15T01:16:11.032Z,11.80
2022-09-15T01:18:48.002Z,11.76
2022-09-15T01:21:29.835Z,11.74
2022-09-15T01:24:41.202Z,11.71
2022-09-15T01:27:42.874Z,11.70
2022-09-15T01:30:15.439Z,11.72
2022-09-15T01:33:06.175Z,11.68
2022-09-15T01:35:53.738Z,11.62
2022-09-15T01:38:33.396Z,11.59
2022-09-15T01:41:06.133Z,11.59
2022-09-15T01:43:40.267Z,11.57
2022-09-15T01:46:10.855Z,11.55
2022-09-15T01:48:40.606Z,11.52
2022-09-15T01:51:09.334Z,11.53
2022-09-15T01:53:37.158Z,11.55
2022-09-15T01:56:08.203Z,11.52
2022-09-15T01:58:37.671Z,11.51
2022-09-15T02:01:08.502Z,11.51
2022-09-15T02:03:47.325Z,11.48
2022-09-15T02:06:22.106Z,11.46
2022-09-15T02:08:57.361Z,11.45
2022-09-15T02:11:28.184Z,11.42
2022-09-15T02:14:03.576Z,11.42
2022-09-15T02:16:34.945Z,11.40
2022-09-15T02:19:21.522Z,11.39
2022-09-15T02:21:55.895Z,11.41
2022-09-15T02:24:27.912Z,11.37
2022-09-15T02:26:56.203Z,11.33
2022-09-15T02:29:27.823Z,11.30
2022-09-15T02:32:03.744Z,11.32
2022-09-15T02:34:38.308Z,11.29
2022-09-15T02:37:06.764Z,11.25
2022-09-15T02:39:37.872Z,11.23
2022-09-15T02:42:05.883Z,11.22
2022-09-15T02:44:33.653Z,11.24
2022-09-15T02:47:02.616Z,11.26
2022-09-15T02:49:30.191Z,11.24
2022-09-15T02:51:59.170Z,11.24
2022-09-15T02:54:26.784Z,11.18
2022-09-15T02:56:54.373Z,11.19
2022-09-15T02:59:22.270Z,11.15
2022-09-15T03:01:49.974Z,11.18
2022-09-15T03:04:17.586Z,11.16
2022-09-15T03:06:45.335Z,11.16
2022-09-15T03:09:14.886Z,11.14
2022-09-15T03:11:42.536Z,11.13
2022-09-15T03:14:10.495Z,11.11
2022-09-15T03:16:38.196Z,11.11
2022-09-15T03:19:06.238Z,11.05
2022-09-15T03:21:33.873Z,11.03
2022-09-15T03:24:01.581Z,11.01
2022-09-15T03:26:31.050Z,11.05
2022-09-15T03:28:58.718Z,11.04
2022-09-15T03:31:26.349Z,11.05
2022-09-15T03:33:56.048Z,11.03
2022-09-15T03:36:23.779Z,11.07
2022-09-15T03:38:51.481Z,11.05
2022-09-15T03:41:19.225Z,11.05
2022-09-15T03:43:48.155Z,11.07
2022-09-15T03:46:15.841Z,11.01
2022-09-15T03:48:43.430Z,11.00
2022-09-15T03:51:12.500Z,11.01
2022-09-15T03:53:41.976Z,11.03
2022-09-15T03:56:11.751Z,11.02
2022-09-15T03:58:39.354Z,11.01
2022-09-15T04:01:09.177Z,11.02
2022-09-15T04:03:43.217Z,11.02
2022-09-15T04:06:13.148Z,11.06
2022-09-15T04:08:40.871Z,11.08
2022-09-15T04:11:10.747Z,11.06
2022-09-15T04:13:39.858Z,11.01
2022-09-15T04:16:11.238Z,11.06
2022-09-15T04:18:39.105Z,11.11
2022-09-15T04:21:09.694Z,11.18
2022-09-15T04:23:37.253Z,11.17
2022-09-15T04:26:07.663Z,11.12
2022-09-15T04:28:38.043Z,11.15
2022-09-15T04:31:08.673Z,11.07
2022-09-15T04:33:37.031Z,11.08
2022-09-15T04:36:08.015Z,11.11
2022-09-15T04:38:36.371Z,11.10
2022-09-15T04:41:05.123Z,11.14
2022-09-15T04:43:33.230Z,11.12
2022-09-15T04:46:00.860Z,11.14
2022-09-15T04:48:29.890Z,11.20
2022-09-15T04:51:01.998Z,11.21
2022-09-15T04:53:29.933Z,11.29
2022-09-15T04:56:04.073Z,11.32
2022-09-15T04:58:31.776Z,11.37
2022-09-15T05:00:59.366Z,11.43
2022-09-15T05:03:26.998Z,11.45
2022-09-15T05:05:55.880Z,11.51
2022-09-15T05:08:23.548Z,11.58
2022-09-15T05:10:51.177Z,11.61
2022-09-15T05:13:18.877Z,11.58
2022-09-15T05:15:46.778Z,11.60
2022-09-15T05:18:14.393Z,11.63
2022-09-15T05:20:42.113Z,11.71
2022-09-15T05:23:11.665Z,11.75
2022-09-15T05:25:39.245Z,11.71
2022-09-15T05:28:07.683Z,11.79
2022-09-15T05:30:39.684Z,11.72
2022-09-15T05:33:09.078Z,11.70
2022-09-15T05:35:36.719Z,11.71
2022-09-15T05:38:04.357Z,11.68
2022-09-15T05:40:33.908Z,11.70
2022-09-15T05:43:01.933Z,11.79
2022-09-15T05:45:29.473Z,11.95
2022-09-15T05:47:57.101Z,12.20
2022-09-15T05:50:24.918Z,12.38
2022-09-15T05:52:52.903Z,12.79
2022-09-15T05:55:20.529Z,12.99
2022-09-15T05:57:49.557Z,13.26
2022-09-15T06:00:18.969Z,13.23
2022-09-15T06:02:46.954Z,13.38
2022-09-15T06:05:14.665Z,13.40
2022-09-15T06:07:42.165Z,13.46
2022-09-15T06:10:10.987Z,13.55
2022-09-15T06:12:38.816Z,13.39
2022-09-15T06:15:08.844Z,13.42
2022-09-15T06:17:36.374Z,13.46
2022-09-15T06:20:06.741Z,13.36
2022-09-15T06:22:35.059Z,13.42
2022-09-15T06:25:02.764Z,13.37
2022-09-15T06:27:30.276Z,13.50
2022-09-15T06:29:57.912Z,13.48
2022-09-15T06:32:27.102Z,13.45
2022-09-15T06:34:54.779Z,13.50
2022-09-15T06:37:22.295Z,13.48
2022-09-15T06:39:49.995Z,13.51
2022-09-15T06:42:17.862Z,13.55
2022-09-15T06:44:45.480Z,13.78
2022-09-15T06:47:16.004Z,13.91
2022-09-15T06:49:44.966Z,13.98
2022-09-15T06:52:12.768Z,14.08
2022-09-15T06:54:40.370Z,14.07
2022-09-15T06:57:08.067Z,14.03
2022-09-15T06:59:35.749Z,14.05
2022-09-15T07:02:05.287Z,13.98
2022-09-15T07:04:36.842Z,14.04
2022-09-15T07:07:06.474Z,14.07
2022-09-15T07:09:34.080Z,14.18
2022-09-15T07:12:02.026Z,14.24
2022-09-15T07:14:30.217Z,14.19
2022-09-15T07:16:57.889Z,14.17
2022-09-15T07:19:25.432Z,14.19
2022-09-15T07:21:53.853Z,14.25
2022-09-15T07:24:22.876Z,14.26
2022-09-15T07:26:50.558Z,14.31
2022-09-15T07:29:18.439Z,14.44
2022-09-15T07:31:46.100Z,14.45
2022-09-15T07:34:13.776Z,14.52
2022-09-15T07:36:41.326Z,14.46
2022-09-15T07:39:08.867Z,14.52
2022-09-15T07:41:37.829Z,14.68
2022-09-15T07:44:08.035Z,14.60
2022-09-15T07:46:35.577Z,14.60
2022-09-15T07:49:03.843Z,14.63
2022-09-15T07:51:31.554Z,14.68
2022-09-15T07:53:59.118Z,14.77
2022-09-15T07:56:26.793Z,14.84
2022-09-15T07:58:55.798Z,14.86
2022-09-15T08:01:23.479Z,15.00
2022-09-15T08:03:54.584Z,15.13
2022-09-15T08:06:24.397Z,15.11
2022-09-15T08:08:57.713Z,15.38
2022-09-15T08:11:27.523Z,15.43
2022-09-15T08:13:56.515Z,15.43
2022-09-15T08:16:25.457Z,15.43
2022-09-15T08:18:55.941Z,15.52
2022-09-15T08:21:23.835Z,15.66
2022-09-15T08:23:52.489Z,15.83
2022-09-15T08:26:20.311Z,15.87
2022-09-15T08:28:48.226Z,15.94
2022-09-15T08:31:18.019Z,16.04
2022-09-15T08:33:48.935Z,16.00
2022-09-15T08:36:16.550Z,16.05
2022-09-15T08:38:45.975Z,16.14
2022-09-15T08:41:18.285Z,16.26
2022-09-15T08:43:50.819Z,16.47
2022-09-15T08:46:25.300Z,16.67
2022-09-15T08:49:02.905Z,16.46
2022-09-15T08:51:36.956Z,16.58
2022-09-15T08:54:12.049Z,16.80
2022-09-15T08:56:42.477Z,16.94
2022-09-15T08:59:14.165Z,17.16
2022-09-15T09:02:06.947Z,17.06
2022-09-15T09:05:03.729Z,17.25
2022-09-15T09:07:49.197Z,17.27
2022-09-15T09:10:20.972Z,17.48
2022-09-15T09:13:04.505Z,17.58
2022-09-15T09:15:48.556Z,17.62
2022-09-15T09:18:49.344Z,17.82
2022-09-15T09:21:24.512Z,17.79
2022-09-15T09:23:59.562Z,17.96
2022-09-15T09:26:30.769Z,18.01
2022-09-15T09:29:00.870Z,18.11
2022-09-15T09:31:29.623Z,17.85
2022-09-15T09:34:07.903Z,17.78
2022-09-15T09:36:35.476Z,17.95
2022-09-15T09:39:03.766Z,17.95
2022-09-15T09:41:36.518Z,17.94
2022-09-15T09:44:07.649Z,17.73
2022-09-15T09:46:35.257Z,17.62
2022-09-15T09:49:12.096Z,17.62
2022-09-15T09:51:50.937Z,17.55
2022-09-15T09:54:20.678Z,17.62
2022-09-15T09:56:49.616Z,17.61
2022-09-15T09:59:41.573Z,17.59
2022-09-15T10:02:17.943Z,17.52
2022-09-15T10:04:49.111Z,17.70
2022-09-15T10:07:20.071Z,17.68
2022-09-15T10:09:54.188Z,17.64
2022-09-15T10:12:26.147Z,18.07
2022-09-15T10:14:56.691Z,18.30
2022-09-15T10:17:27.122Z,18.62
2022-09-15T10:19:58.177Z,18.65
2022-09-15T10:22:31.159Z,18.80
2022-09-15T10:25:00.705Z,18.84
2022-09-15T10:27:32.001Z,19.32
2022-09-15T10:30:18.424Z,19.20
2022-09-15T10:32:46.071Z,19.12
2022-09-15T10:35:18.599Z,18.87
2022-09-15T10:38:04.356Z,18.74
2022-09-15T10:40:43.994Z,18.55
2022-09-15T10:43:25.246Z,18.35
2022-09-15T10:46:02.720Z,17.94
2022-09-15T10:48:44.233Z,17.69
2022-09-15T10:51:37.981Z,17.73
2022-09-15T10:54:19.427Z,17.82
2022-09-15T10:56:50.006Z,18.07
2022-09-15T10:59:43.150Z,18.15
2022-09-15T11:02:56.451Z,18.38
2022-09-15T11:05:33.183Z,18.26
2022-09-15T11:08:22.837Z,18.26
2022-09-15T11:10:59.666Z,18.13
2022-09-15T11:13:39.595Z,18.06
2022-09-15T11:16:14.541Z,17.97
2022-09-15T11:18:59.965Z,17.79
2022-09-15T11:21:33.634Z,17.67
2022-09-15T11:24:24.067Z,17.40
2022-09-15T11:26:55.544Z,17.13
2022-09-15T11:29:27.998Z,16.82
2022-09-15T11:34:34.731Z,16.46
2022-09-15T11:37:09.147Z,16.57
2022-09-15T11:39:42.617Z,16.61
2022-09-15T11:42:16.143Z,16.79
2022-09-15T11:44:47.096Z,16.89
2022-09-15T11:47:23.331Z,17.03
2022-09-15T11:49:57.099Z,17.31
2022-09-15T11:52:44.043Z,17.61
2022-09-15T11:55:23.996Z,17.63
2022-09-15T11:57:58.015Z,17.84
2022-09-15T12:00:26.062Z,17.97
2022-09-15T12:03:01.247Z,17.99
2022-09-15T12:05:34.311Z,17.95
2022-09-15T12:08:07.753Z,17.88
2022-09-15T12:10:41.349Z,17.86
2022-09-15T12:13:16.312Z,18.00
2022-09-15T12:15:45.240Z,17.93
2022-09-15T12:18:37.790Z,18.10
2022-09-15T12:21:15.769Z,18.13
2022-09-15T12:23:48.719Z,18.31
2022-09-15T12:26:20.174Z,18.23
2022-09-15T12:29:02.003Z,18.06
2022-09-15T12:31:40.068Z,18.09
2022-09-15T12:34:36.407Z,18.19
2022-09-15T12:37:14.614Z,18.23
2022-09-15T12:39:43.187Z,18.22
2022-09-15T12:42:20.351Z,18.18
2022-09-15T12:44:52.910Z,17.97
2022-09-15T12:47:29.406Z,17.83
2022-09-15T12:50:03.247Z,17.81
2022-09-15T12:52:31.217Z,17.66
2022-09-15T12:55:03.467Z,17.53
2022-09-15T12:57:36.085Z,17.49
2022-09-15T13:00:33.561Z,17.44
2022-09-15T13:03:04.869Z,17.41
2022-09-15T13:06:10.347Z,17.44
2022-09-15T13:08:53.073Z,17.36
2022-09-15T13:11:25.862Z,17.41
2022-09-15T13:14:07.728Z,17.60
2022-09-15T13:16:46.108Z,17.72
2022-09-15T13:19:17.618Z,17.99
2022-09-15T13:21:54.522Z,18.26
2022-09-15T13:24:38.839Z,18.35
2022-09-15T13:27:08.246Z,18.36
2022-09-15T13:29:46.614Z,18.51
2022-09-15T13:32:24.255Z,18.58
2022-09-15T13:35:29.283Z,18.53
2022-09-15T13:38:44.330Z,18.69
2022-09-15T13:41:33.330Z,18.77
2022-09-15T13:44:23.299Z,18.67
2022-09-15T13:47:10.748Z,18.64
2022-09-15T13:49:49.779Z,18.56
2022-09-15T13:52:34.082Z,18.51
2022-09-15T13:55:19.440Z,18.51
2022-09-15T14:00:46.778Z,18.40
2022-09-15T14:03:20.071Z,18.26
2022-09-15T14:05:48.016Z,18.12
2022-09-15T14:08:19.598Z,18.05
2022-09-15T14:10:51.433Z,17.99
2022-09-15T14:13:22.430Z,18.03
2022-09-15T14:16:01.490Z,17.97
2022-09-15T14:18:31.339Z,17.91
2022-09-15T14:21:01.669Z,17.84
2022-09-15T14:23:30.213Z,17.85
2022-09-15T14:26:00.151Z,17.86
2022-09-15T14:28:35.606Z,17.82
2022-09-15T14:31:03.496Z,17.81
2022-09-15T14:33:37.927Z,17.77
2022-09-15T14:36:14.448Z,17.61
2022-09-15T14:38:42.157Z,17.53
2022-09-15T14:41:19.944Z,17.33
2022-09-15T14:43:47.597Z,17.07
2022-09-15T14:46:19.023Z,16.79
2022-09-15T14:48:48.247Z,16.39
2022-09-15T14:51:22.406Z,16.18
2022-09-15T14:53:52.162Z,16.06
2022-09-15T14:56:22.749Z,15.88
2022-09-15T14:58:53.761Z,15.72
2022-09-15T15:01:24.433Z,15.69
2022-09-15T15:04:02.570Z,15.62
2022-09-15T15:06:38.618Z,15.59
2022-09-15T15:09:11.213Z,15.54
2022-09-15T15:11:44.045Z,15.64
2022-09-15T15:14:14.369Z,15.67
2022-09-15T15:16:55.486Z,15.71
2022-09-15T15:19:39.460Z,15.76
2022-09-15T15:22:16.516Z,15.74
2022-09-15T15:24:47.663Z,15.87
2022-09-15T15:27:40.681Z,15.90
2022-09-15T15:30:33.775Z,15.87
2022-09-15T15:33:02.899Z,15.82
2022-09-15T15:35:33.586Z,15.81
2022-09-15T15:38:04.593Z,15.93
2022-09-15T15:40:37.970Z,15.96
2022-09-15T15:43:08.337Z,15.95
2022-09-15T15:45:48.397Z,15.90
2022-09-15T15:48:18.398Z,15.74
2022-09-15T15:50:47.830Z,15.68
2022-09-15T15:53:15.458Z,15.63
2022-09-15T15:55:44.557Z,15.57
2022-09-15T15:58:13.499Z,15.46
2022-09-15T16:00:45.154Z,15.38
2022-09-15T16:03:19.285Z,15.26
2022-09-15T16:05:51.249Z,15.23
2022-09-15T16:08:25.541Z,15.18
2022-09-15T16:10:56.248Z,15.26
2022-09-15T16:13:27.654Z,15.27
2022-09-15T16:15:56.978Z,15.31
2022-09-15T16:18:29.271Z,15.31
2022-09-15T16:20:58.360Z,15.33
2022-09-15T16:23:26.312Z,15.32
2022-09-15T16:25:56.626Z,15.37
2022-09-15T16:28:24.665Z,15.34
2022-09-15T16:30:52.351Z,15.37
2022-09-15T16:33:20.956Z,15.36
2022-09-15T16:35:51.315Z,15.36
2022-09-15T16:38:21.227Z,15.33
2022-09-15T16:40:49.499Z,15.33
2022-09-15T16:43:19.268Z,15.34
2022-09-15T16:45:46.918Z,15.29
2022-09-15T16:48:14.887Z,15.25
2022-09-15T16:50:56.012Z,15.22
2022-09-15T16:53:32.662Z,15.22
2022-09-15T16:56:00.495Z,15.18
2022-09-15T16:58:28.637Z,15.16
2022-09-15T17:00:56.723Z,15.10
2022-09-15T17:03:25.986Z,15.11
2022-09-15T17:05:54.981Z,15.09
2022-09-15T17:08:27.057Z,15.07
2022-09-15T17:10:57.662Z,15.04
2022-09-15T17:13:30.118Z,15.02
2022-09-15T17:15:58.881Z,15.01
2022-09-15T17:18:26.938Z,15.02
2022-09-15T17:20:54.836Z,15.05
2022-09-15T17:23:24.392Z,15.03
2022-09-15T17:25:53.303Z,14.99
2022-09-15T17:28:25.536Z,15.00
2022-09-15T17:30:58.262Z,14.93
2022-09-15T17:33:26.923Z,14.93
2022-09-15T17:35:54.899Z,14.89
2022-09-15T17:38:22.901Z,14.84
2022-09-15T17:40:51.689Z,14.87
2022-09-15T17:43:20.969Z,14.82
2022-09-15T17:45:51.759Z,14.81
2022-09-15T17:48:19.731Z,14.67
2022-09-15T17:50:48.878Z,14.59
2022-09-15T17:53:18.850Z,14.49
2022-09-15T17:55:46.461Z,14.37
2022-09-15T17:58:14.362Z,14.21
2022-09-15T18:00:48.036Z,14.09
2022-09-15T18:03:22.901Z,13.94
2022-09-15T18:05:51.470Z,13.84
2022-09-15T18:08:19.276Z,13.71
2022-09-15T18:10:47.414Z,13.60
2022-09-15T18:13:17.516Z,13.50
2022-09-15T18:15:48.968Z,13.33
2022-09-15T18:18:22.736Z,13.20
2022-09-15T18:20:51.522Z,13.03
2022-09-15T18:23:20.923Z,12.90
2022-09-15T18:25:49.129Z,12.80
2022-09-15T18:28:17.620Z,12.73
2022-09-15T18:30:47.508Z,12.65
2022-09-15T18:33:16.939Z,12.65
2022-09-15T18:35:46.412Z,12.63
2022-09-15T18:38:17.033Z,12.62
2022-09-15T18:40:46.670Z,12.67
2022-09-15T18:43:14.325Z,12.74
2022-09-15T18:45:42.586Z,12.79
2022-09-15T18:48:12.852Z,12.84
2022-09-15T18:50:41.573Z,12.91
2022-09-15T18:53:11.478Z,12.92
2022-09-15T18:55:41.750Z,12.98
2022-09-15T18:58:09.707Z,13.03
2022-09-15T19:00:37.789Z,13.02
2022-09-15T19:03:09.467Z,13.04
2022-09-15T19:05:37.615Z,13.05
2022-09-15T19:08:05.513Z,13.09
2022-09-15T19:10:34.718Z,13.10
2022-09-15T19:13:02.363Z,13.15
2022-09-15T19:15:33.710Z,13.08
2022-09-15T19:18:02.008Z,13.13
2022-09-15T19:20:30.016Z,13.06
2022-09-15T19:22:58.151Z,13.04
2022-09-15T19:25:25.882Z,13.04
2022-09-15T19:27:55.003Z,12.95
2022-09-15T19:30:22.587Z,12.93
2022-09-15T19:32:50.189Z,12.87
2022-09-15T19:35:17.953Z,12.79
2022-09-15T19:37:45.952Z,12.76
2022-09-15T19:40:15.833Z,12.82
2022-09-15T19:42:45.256Z,12.80
2022-09-15T19:45:14.812Z,12.79
2022-09-15T19:47:42.899Z,12.75
2022-09-15T19:50:12.741Z,12.73
2022-09-15T19:52:40.590Z,12.74
2022-09-15T19:55:09.649Z,12.75
2022-09-15T19:57:39.879Z,12.76
2022-09-15T20:00:09.438Z,12.73
2022-09-15T20:02:39.128Z,12.68
2022-09-15T20:05:07.894Z,12.63
2022-09-15T20:07:35.671Z,12.59
2022-09-15T20:10:03.382Z,12.53
2022-09-15T20:12:34.611Z,12.47
2022-09-15T20:15:02.156Z,12.44
2022-09-15T20:17:29.753Z,12.42
2022-09-15T20:19:59.409Z,12.37
2022-09-15T20:22:27.505Z,12.34
2022-09-15T20:24:56.094Z,12.28
2022-09-15T20:27:23.831Z,12.23
2022-09-15T20:29:51.597Z,12.26
2022-09-15T20:32:22.751Z,12.33
2022-09-15T20:34:52.967Z,12.38
2022-09-15T20:37:23.015Z,12.39
2022-09-15T20:39:51.831Z,12.41
2022-09-15T20:42:19.674Z,12.39
2022-09-15T20:44:47.207Z,12.40
2022-09-15T20:47:14.797Z,12.40
2022-09-15T20:49:42.530Z,12.40
2022-09-15T20:52:10.178Z,12.38
2022-09-15T20:54:39.089Z,12.36
2022-09-15T20:57:06.726Z,12.32
2022-09-15T20:59:34.321Z,12.33
2022-09-15T21:02:04.215Z,12.33
2022-09-15T21:04:32.643Z,12.31
2022-09-15T21:07:00.871Z,12.22
2022-09-15T21:09:28.498Z,12.20
2022-09-15T21:11:57.550Z,12.21
2022-09-15T21:14:25.118Z,12.23
2022-09-15T21:16:52.824Z,12.22
2022-09-15T21:19:20.525Z,12.17
2022-09-15T21:21:48.162Z,12.19
2022-09-15T21:24:15.844Z,12.22
2022-09-15T21:26:57.543Z,12.21
2022-09-15T21:29:27.571Z,12.22
2022-09-15T21:31:56.224Z,12.23
2022-09-15T21:34:25.199Z,12.21
2022-09-15T21:36:53.718Z,12.26
2022-09-15T21:39:21.321Z,12.27
2022-09-15T21:41:49.200Z,12.28
2022-09-15T21:44:17.177Z,12.24
2022-09-15T21:46:46.938Z,12.20
2022-09-15T21:49:14.891Z,12.15
2022-09-15T21:51:42.501Z,12.06
2022-09-15T21:54:10.320Z,12.01
2022-09-15T21:56:38.092Z,11.95
2022-09-15T21:59:05.941Z,11.94
2022-09-15T22:01:34.333Z,11.89
2022-09-15T22:04:05.883Z,11.85
2022-09-15T22:06:34.978Z,11.76
2022-09-15T22:09:05.109Z,11.72
2022-09-15T22:11:33.691Z,11.72
2022-09-15T22:14:02.892Z,11.64
2022-09-15T22:16:31.022Z,11.60
2022-09-15T22:18:58.906Z,11.54
2022-09-15T22:21:29.269Z,11.51
2022-09-15T22:23:58.972Z,11.45
2022-09-15T22:26:28.763Z,11.42
2022-09-15T22:28:56.906Z,11.39
2022-09-15T22:31:25.539Z,11.34
2022-09-15T22:33:53.647Z,11.31
2022-09-15T22:36:27.951Z,11.28
2022-09-15T22:39:03.518Z,11.23
2022-09-15T22:41:32.351Z,11.26
2022-09-15T22:43:59.953Z,11.26
2022-09-15T22:46:27.591Z,11.22
2022-09-15T22:48:55.285Z,11.24
2022-09-15T22:51:22.997Z,11.16
2022-09-15T22:53:53.952Z,11.13
2022-09-15T22:56:23.221Z,11.10
2022-09-15T22:58:50.967Z,11.05
2022-09-15T23:01:20.607Z,11.03
2022-09-15T23:03:50.881Z,11.05
2022-09-15T23:06:18.645Z,11.05
2022-09-15T23:08:50.936Z,11.00
2022-09-15T23:11:18.740Z,11.00
2022-09-15T23:13:47.904Z,10.99
2022-09-15T23:16:15.881Z,10.94
2022-09-15T23:18:43.835Z,10.90
2022-09-15T23:21:12.824Z,10.90
2022-09-15T23:23:43.099Z,10.89
2022-09-15T23:26:12.829Z,10.90
2022-09-15T23:28:40.706Z,10.86
2022-09-15T23:31:11.858Z,10.90
2022-09-15T23:33:40.202Z,10.90
2022-09-15T23:36:10.631Z,10.93
2022-09-15T23:38:39.544Z,10.89
2022-09-15T23:41:08.093Z,10.90
2022-09-15T23:43:36.249Z,10.87
2022-09-15T23:46:04.848Z,10.88
2022-09-15T23:48:33.795Z,10.93
2022-09-15T23:51:01.949Z,10.93
2022-09-15T23:53:29.991Z,10.90
2022-09-15T23:55:58.136Z,10.89
2022-09-15T23:58:29.179Z,10.86
